createdAt,value
2018-03-29T01:37:48.066Z,3.10
2018-03-29T01:38:47.997Z,3.20
2018-03-29T01:39:47.998Z,3.60
2018-03-29T01:40:48.002Z,3.00
2018-03-29T08:36:54.096Z,1.50
2018-03-29T08:37:26.832Z,1.20
2018-03-29T08:38:26.846Z,1.40
2018-03-29T08:39:26.949Z,1.50
2018-03-29T08:40:27.047Z,1.20
2018-03-29T08:41:26.834Z,1.30
2018-03-29T08:42:26.841Z,1.20
2018-03-29T08:43:26.854Z,1.50
2018-03-29T08:45:02.105Z,1.20
2018-03-29T08:45:27.031Z,1.80
2018-03-29T08:46:26.852Z,1.60
2018-03-29T08:47:26.833Z,1.30
2018-03-29T08:48:26.836Z,1.30
2018-03-29T08:54:03.344Z,2.40
2018-03-29T08:55:02.722Z,2.40
2018-03-29T08:56:02.853Z,2.50
2018-03-29T08:57:02.714Z,1.70
2018-03-29T08:58:02.705Z,1.80
2018-03-29T09:09:51.580Z,2.80
2018-03-29T09:10:51.568Z,2.40
2018-03-29T09:11:51.589Z,3.70
2018-03-29T09:12:51.611Z,2.90
2018-03-29T09:23:15.459Z,2.50
2018-03-29T09:23:52.667Z,1.80
2018-03-29T09:24:52.708Z,3.00
2018-03-29T09:25:52.683Z,2.00
2018-03-29T09:26:52.673Z,1.60
2018-03-29T09:27:52.669Z,2.80
2018-03-29T09:41:51.509Z,2.80
2018-03-29T10:21:19.758Z,2.00
2018-03-29T10:22:19.714Z,2.20
2018-03-29T10:23:19.693Z,2.80
2018-03-29T10:25:53.539Z,2.90
2018-03-29T10:26:51.440Z,4.50
2018-03-29T10:27:51.467Z,4.30
2018-03-29T10:28:51.438Z,4.40
